Adrian, Ohio
Current Conditions -  °F | °C
As of 10:53 PM on Thursday 18 Dec 2014 (Local Time) from KFDY Reporting Station
Overcast Overcast  
Wind Chill: 22°   Ceiling: 1300
Heat Index: 29°   Visibility: 7mi
Dew Point: 24°   Wind: 7mph
Humidity: 82%   Direction: 240°WSW
Pressure: 30.2"   Gusts: NA
Location:  41°N, 83.32°W
Report Text: KFDY 190353Z AUTO 24006KT 7SM BKN013 OVC027 M02/M04 A3020 RMK AO2 SLP233 T10171044
Loading
Personal Weather Stations






























Interactive Weather Map New forecast layout! Learn more

10-Day Weather Forecast

Advertisements
Track Severe Weather on mobile